Time;durP1;ratioP1;P1;durP2;ratioP2;P2;SDS_P1;SDS_P2;PMS_P1;PMS_P2;Temp;Humidity;BMP_temperature;BMP_pressure;BME280_temperature;BME280_humidity;BME280_pressure;Samples;Min_cycle;Max_cycle;Signal;HPM_P1;HPM_P2
2021/12/28 00:00:12;;;;;;;2.60;0.25;;;22.00;97.00;;;;;;5092166;28;20114;-76
2021/12/28 00:02:40;;;;;;;4.72;0.73;;;21.90;96.80;;;;;;5093035;28;20066;-73
2021/12/28 00:05:09;;;;;;;6.95;0.35;;;21.90;96.40;;;;;;5091291;28;20016;-78
2021/12/28 00:07:38;;;;;;;1.75;0.52;;;21.90;96.70;;;;;;5095130;28;20027;-76
2021/12/28 00:10:08;;;;;;;4.25;0.47;;;21.90;96.80;;;;;;5090898;28;20027;-75
2021/12/28 00:12:37;;;;;;;1.73;0.40;;;22.00;96.80;;;;;;5092465;28;20027;-75
2021/12/28 00:15:32;;;;;;;3.65;0.40;;;21.90;96.50;;;;;;5070114;28;20024;-75
2021/12/28 00:18:04;;;;;;;4.80;1.25;;;21.90;96.30;;;;;;5092578;28;20283;-76
2021/12/28 00:20:38;;;;;;;1.88;0.40;;;21.70;96.60;;;;;;5093474;28;20027;-76
2021/12/28 00:23:10;;;;;;;6.78;0.43;;;21.80;97.60;;;;;;5091426;28;20036;-76
2021/12/28 00:25:37;;;;;;;5.07;0.40;;;21.80;96.70;;;;;;5092714;28;20500;-76
2021/12/28 00:28:05;;;;;;;3.33;0.32;;;21.90;96.90;;;;;;5092831;27;20058;-75
2021/12/28 00:30:33;;;;;;;2.08;0.40;;;21.90;96.60;;;;;;5093059;28;20031;-75
2021/12/28 00:33:01;;;;;;;1.05;0.20;;;22.00;96.90;;;;;;5091296;28;20038;-74
2021/12/28 00:35:32;;;;;;;0.43;0.20;;;22.00;96.80;;;;;;5092334;28;20034;-75
2021/12/28 00:37:59;;;;;;;1.42;0.15;;;22.10;96.40;;;;;;5085987;27;20020;-74
2021/12/28 00:40:27;;;;;;;9.32;0.98;;;22.10;96.30;;;;;;5086456;28;20108;-78
2021/12/28 00:42:58;;;;;;;3.15;1.30;;;22.20;96.20;;;;;;5086208;28;20047;-75
2021/12/28 00:45:26;;;;;;;3.38;0.80;;;22.30;96.40;;;;;;5087110;28;20030;-77
2021/12/28 00:47:54;;;;;;;2.03;0.40;;;22.60;97.00;;;;;;5084844;28;20236;-76
2021/12/28 00:50:22;;;;;;;3.90;0.75;;;22.80;96.20;;;;;;5084040;28;20027;-76
2021/12/28 00:52:50;;;;;;;2.65;0.20;;;23.10;96.80;;;;;;5084745;28;20035;-77
2021/12/28 00:55:19;;;;;;;4.80;0.47;;;23.50;95.40;;;;;;5083853;27;20594;-76
2021/12/28 00:57:47;;;;;;;5.35;0.47;;;23.70;95.20;;;;;;5086178;28;20662;-75
2021/12/28 01:00:21;;;;;;;3.30;0.73;;;23.80;94.90;;;;;;5081842;27;20035;-75
2021/12/28 01:02:49;;;;;;;4.22;0.65;;;23.90;94.50;;;;;;5087740;28;20130;-77
2021/12/28 01:05:17;;;;;;;2.00;0.25;;;24.00;94.60;;;;;;5060715;28;22459;-77
2021/12/28 01:07:45;;;;;;;1.65;0.30;;;24.00;94.30;;;;;;5084159;28;20513;-77
2021/12/28 01:10:18;;;;;;;1.40;0.32;;;24.00;94.20;;;;;;5083006;28;20092;-77
2021/12/28 01:12:45;;;;;;;4.32;0.80;;;23.80;94.20;;;;;;5088749;28;20076;-77
2021/12/28 01:15:14;;;;;;;2.80;0.68;;;23.70;94.10;;;;;;5088057;28;20162;-76
2021/12/28 01:17:41;;;;;;;0.85;0.43;;;23.70;94.20;;;;;;5090446;28;20030;-78
2021/12/28 01:20:11;;;;;;;0.85;0.28;;;23.50;94.20;;;;;;5091300;28;20116;-78
2021/12/28 01:22:39;;;;;;;1.90;0.40;;;23.40;94.30;;;;;;5086339;28;20067;-76
2021/12/28 01:25:08;;;;;;;1.92;0.50;;;23.30;95.30;;;;;;5085128;28;20434;-75
2021/12/28 01:27:35;;;;;;;2.92;0.45;;;23.10;94.20;;;;;;5083897;28;20043;-77
2021/12/28 01:30:08;;;;;;;6.88;0.63;;;22.90;94.60;;;;;;5083815;28;20027;-76
2021/12/28 01:32:37;;;;;;;3.55;0.45;;;22.80;95.00;;;;;;5089590;28;20091;-76
2021/12/28 01:35:07;;;;;;;1.52;0.20;;;22.70;95.10;;;;;;5085292;28;20039;-75
2021/12/28 01:37:35;;;;;;;4.78;0.93;;;22.60;94.90;;;;;;5086353;28;20027;-76
2021/12/28 01:40:06;;;;;;;1.35;0.35;;;22.60;95.40;;;;;;5086226;28;20040;-78
2021/12/28 01:42:34;;;;;;;3.17;0.40;;;22.60;95.50;;;;;;5083598;28;20043;-74
2021/12/28 01:45:02;;;;;;;5.40;0.95;;;22.70;95.70;;;;;;5082553;28;20036;-76
2021/12/28 01:47:30;;;;;;;3.65;0.32;;;22.70;95.60;;;;;;5083911;28;20896;-74
2021/12/28 01:49:57;;;;;;;1.83;0.30;;;22.90;95.30;;;;;;5084215;28;20035;-76
2021/12/28 01:52:24;;;;;;;3.63;0.40;;;22.90;94.80;;;;;;5085576;28;22867;-75
2021/12/28 01:54:52;;;;;;;1.05;0.30;;;22.90;94.30;;;;;;5082638;28;20116;-75
2021/12/28 01:57:19;;;;;;;2.13;0.30;;;22.90;94.40;;;;;;5085608;28;20123;-75
2021/12/28 01:59:51;;;;;;;1.02;0.20;;;23.00;94.70;;;;;;5083666;28;20458;-76
2021/12/28 02:02:18;;;;;;;2.55;0.60;;;23.10;94.50;;;;;;5090388;28;20140;-77
2021/12/28 02:04:50;;;;;;;1.30;0.52;;;23.10;94.20;;;;;;5089071;28;20023;-74
2021/12/28 02:07:17;;;;;;;4.43;0.40;;;23.10;93.70;;;;;;5085537;28;20149;-78
2021/12/28 02:09:44;;;;;;;1.70;0.28;;;23.20;94.60;;;;;;5081013;28;20531;-74
2021/12/28 02:12:12;;;;;;;3.22;0.57;;;23.20;94.10;;;;;;5084975;28;20043;-75
2021/12/28 02:14:44;;;;;;;2.75;0.75;;;23.50;94.00;;;;;;5084605;28;20031;-79
2021/12/28 02:17:12;;;;;;;1.23;0.22;;;23.60;93.60;;;;;;5092240;27;20031;-77
2021/12/28 02:19:39;;;;;;;3.88;0.32;;;23.80;93.50;;;;;;5085479;28;20039;-78
2021/12/28 02:22:07;;;;;;;2.10;0.30;;;24.00;92.90;;;;;;5089936;28;20031;-77
2021/12/28 02:24:35;;;;;;;2.95;0.50;;;24.40;93.30;;;;;;5084719;27;20177;-75
2021/12/28 02:27:02;;;;;;;4.13;0.30;;;24.50;93.00;;;;;;5087578;27;20150;-75
2021/12/28 02:29:29;;;;;;;0.60;0.30;;;24.60;92.50;;;;;;5084671;27;20038;-77
2021/12/28 02:31:57;;;;;;;1.45;0.20;;;24.70;92.30;;;;;;5086757;27;20045;-77
2021/12/28 02:34:25;;;;;;;2.20;0.38;;;24.80;91.90;;;;;;5087782;27;20038;-76
2021/12/28 02:36:53;;;;;;;4.93;0.77;;;24.90;92.20;;;;;;5090142;27;20118;-77
2021/12/28 02:39:20;;;;;;;1.05;0.30;;;24.70;91.80;;;;;;5091181;28;20122;-76
2021/12/28 02:41:47;;;;;;;2.33;0.40;;;24.50;92.10;;;;;;5088349;27;20043;-77
2021/12/28 02:44:15;;;;;;;4.47;0.80;;;24.50;92.70;;;;;;5086724;28;20023;-76
2021/12/28 02:46:42;;;;;;;1.45;0.30;;;24.40;92.20;;;;;;5086973;27;20055;-77
2021/12/28 02:49:12;;;;;;;2.30;0.50;;;24.40;92.00;;;;;;5088251;27;20076;-77
2021/12/28 02:51:39;;;;;;;2.55;0.28;;;24.60;92.80;;;;;;5085982;27;20059;-76
2021/12/28 02:54:07;;;;;;;1.58;0.20;;;24.90;92.10;;;;;;5089890;27;20028;-76
2021/12/28 02:56:34;;;;;;;1.17;0.73;;;24.80;91.80;;;;;;5094452;27;20042;-75
2021/12/28 02:59:02;;;;;;;3.20;0.35;;;24.70;91.90;;;;;;5092345;27;20023;-76
2021/12/28 03:01:30;;;;;;;1.95;0.30;;;24.70;92.20;;;;;;5090232;27;20903;-77
2021/12/28 03:04:04;;;;;;;3.38;0.40;;;24.40;91.80;;;;;;5088272;28;20027;-75
2021/12/28 03:06:33;;;;;;;2.15;0.77;;;24.20;92.00;;;;;;5088084;27;20028;-76
2021/12/28 03:09:02;;;;;;;2.00;0.40;;;24.40;92.00;;;;;;5090762;28;20481;-76
2021/12/28 03:11:30;;;;;;;8.90;0.50;;;24.50;91.90;;;;;;5088210;28;20032;-77
2021/12/28 03:14:01;;;;;;;1.25;0.20;;;24.50;91.80;;;;;;5085978;27;20038;-78
2021/12/28 03:16:30;;;;;;;4.20;0.50;;;24.40;91.20;;;;;;5091109;28;20028;-77
2021/12/28 03:19:01;;;;;;;0.93;0.20;;;24.20;91.40;;;;;;5091330;27;20031;-77
2021/12/28 03:21:31;;;;;;;2.58;0.20;;;24.10;91.50;;;;;;5086759;27;21343;-76
2021/12/28 03:23:59;;;;;;;0.73;0.28;;;24.10;91.70;;;;;;5088655;28;20091;-77
2021/12/28 03:26:26;;;;;;;2.05;0.30;;;24.00;91.70;;;;;;5085886;27;20115;-76
2021/12/28 03:28:54;;;;;;;1.80;0.77;;;23.90;91.70;;;;;;5086354;27;20265;-77
2021/12/28 03:31:23;;;;;;;4.75;0.50;;;23.80;91.90;;;;;;5085335;27;20032;-77
2021/12/28 03:33:53;;;;;;;3.17;0.90;;;23.80;92.00;;;;;;5087992;28;20039;-76
2021/12/28 03:36:22;;;;;;;1.25;0.25;;;23.90;92.00;;;;;;5092881;28;20035;-77
2021/12/28 03:38:49;;;;;;;2.33;0.25;;;24.00;91.60;;;;;;5086801;28;20469;-77
2021/12/28 03:41:20;;;;;;;1.50;0.40;;;24.00;91.50;;;;;;5086384;28;20044;-77
2021/12/28 03:43:50;;;;;;;3.50;0.60;;;23.90;91.30;;;;;;5088082;27;20016;-78
2021/12/28 03:46:18;;;;;;;4.30;0.20;;;24.00;91.60;;;;;;5087768;28;20020;-77
2021/12/28 03:48:46;;;;;;;3.03;0.88;;;24.10;91.60;;;;;;5088830;28;20027;-77
2021/12/28 03:51:14;;;;;;;2.35;0.85;;;24.20;91.70;;;;;;5090117;28;20024;-77
2021/12/28 03:53:43;;;;;;;2.40;0.47;;;24.40;92.10;;;;;;5089359;28;20031;-77
2021/12/28 03:56:11;;;;;;;3.05;0.47;;;24.40;90.90;;;;;;5085643;27;20177;-79
2021/12/28 03:58:41;;;;;;;2.80;0.60;;;24.40;90.80;;;;;;5084803;27;20030;-79
2021/12/28 04:01:15;;;;;;;2.72;0.50;;;24.50;90.50;;;;;;5090659;28;20125;-77
2021/12/28 04:03:43;;;;;;;3.25;0.55;;;24.60;91.20;;;;;;5084623;27;20490;-77
2021/12/28 04:06:10;;;;;;;5.57;0.93;;;24.70;90.70;;;;;;5089829;27;20035;-78
2021/12/28 04:08:41;;;;;;;0.40;0.20;;;24.70;91.20;;;;;;5082635;27;20059;-76
2021/12/28 04:13:50;;;;;;;0.28;0.17;;;24.50;90.20;;;;;;5088549;28;20035;-77
2021/12/28 04:16:19;;;;;;;3.78;0.50;;;24.40;90.70;;;;;;5085809;28;20504;-76
2021/12/28 04:18:47;;;;;;;5.00;0.60;;;24.30;91.00;;;;;;5082771;28;20031;-77
2021/12/28 04:21:15;;;;;;;3.78;0.73;;;24.30;91.10;;;;;;5085163;28;20073;-77
2021/12/28 04:23:42;;;;;;;1.85;0.40;;;24.60;90.80;;;;;;5085112;28;20466;-77
2021/12/28 04:26:10;;;;;;;2.80;0.30;;;24.90;90.20;;;;;;5084871;27;20591;-77
2021/12/28 04:28:37;;;;;;;1.85;0.38;;;24.80;90.10;;;;;;5082422;28;20028;-79
2021/12/28 04:31:05;;;;;;;1.95;0.25;;;24.70;90.10;;;;;;5086667;28;20032;-76
2021/12/28 04:33:37;;;;;;;1.95;0.25;;;24.70;90.40;;;;;;5086577;28;20671;-77
2021/12/28 04:36:16;;;;;;;1.48;0.50;;;24.60;88.90;;;;;;5087249;27;20032;-77
2021/12/28 04:38:45;;;;;;;1.50;0.47;;;24.40;90.00;;;;;;5084439;28;20470;-78
2021/12/28 04:41:13;;;;;;;1.90;0.30;;;24.20;90.00;;;;;;5088499;28;20048;-78
2021/12/28 04:43:40;;;;;;;4.07;1.13;;;24.10;90.70;;;;;;5084765;28;20032;-78
2021/12/28 04:46:08;;;;;;;1.80;0.20;;;24.10;90.40;;;;;;5087579;28;20023;-78
2021/12/28 04:48:36;;;;;;;1.13;0.30;;;24.10;90.50;;;;;;5088067;27;20100;-79
2021/12/28 04:51:04;;;;;;;3.53;0.40;;;24.00;90.60;;;;;;5085995;28;20032;-76
2021/12/28 04:53:32;;;;;;;1.73;0.28;;;23.80;90.70;;;;;;5081193;27;20084;-77
2021/12/28 04:55:59;;;;;;;3.88;0.40;;;23.60;90.60;;;;;;5084603;27;20027;-78
2021/12/28 04:58:27;;;;;;;3.60;0.32;;;23.50;90.90;;;;;;5083606;28;20482;-78
2021/12/28 05:00:55;;;;;;;2.92;0.65;;;23.40;91.10;;;;;;5087676;28;20127;-77
2021/12/28 05:03:22;;;;;;;2.38;0.60;;;23.40;91.10;;;;;;5092172;28;20024;-77
2021/12/28 05:05:52;;;;;;;0.77;0.20;;;23.50;91.70;;;;;;5083048;28;20470;-78
2021/12/28 05:08:21;;;;;;;1.63;0.30;;;23.50;90.80;;;;;;5082696;28;20035;-77
2021/12/28 05:10:50;;;;;;;1.27;0.17;;;23.50;91.00;;;;;;5083655;28;20020;-77
2021/12/28 05:13:18;;;;;;;4.30;0.35;;;23.60;91.00;;;;;;5083216;28;20028;-76
2021/12/28 05:15:46;;;;;;;7.68;0.50;;;23.60;91.10;;;;;;5088672;28;20482;-78
2021/12/28 05:18:14;;;;;;;1.65;0.47;;;23.50;90.90;;;;;;5088580;28;20064;-77
2021/12/28 05:20:43;;;;;;;2.42;0.60;;;23.40;90.40;;;;;;5083972;28;20050;-76
2021/12/28 05:23:11;;;;;;;2.80;0.43;;;23.50;90.70;;;;;;5084539;28;20316;-76
2021/12/28 05:25:39;;;;;;;6.53;1.55;;;23.50;91.10;;;;;;5084703;28;20085;-78
2021/12/28 05:28:07;;;;;;;2.47;0.10;;;23.50;90.40;;;;;;5084588;28;20026;-79
2021/12/28 05:30:35;;;;;;;1.65;0.32;;;23.40;90.60;;;;;;5089013;28;20047;-76
2021/12/28 05:33:04;;;;;;;2.33;0.32;;;23.40;90.70;;;;;;5090913;28;20035;-76
2021/12/28 05:35:32;;;;;;;2.53;0.30;;;23.40;90.80;;;;;;5093924;28;20040;-77
2021/12/28 05:37:59;;;;;;;0.40;0.05;;;23.40;90.40;;;;;;5088461;28;20736;-78
2021/12/28 05:40:27;;;;;;;3.38;0.30;;;23.40;90.70;;;;;;5085918;28;20227;-78
2021/12/28 05:42:54;;;;;;;1.38;0.40;;;23.30;90.80;;;;;;5083750;28;20059;-78
2021/12/28 05:45:22;;;;;;;3.38;0.25;;;23.20;91.10;;;;;;5090348;28;20020;-76
2021/12/28 05:47:49;;;;;;;3.10;1.15;;;23.20;91.00;;;;;;5090251;28;20036;-78
2021/12/28 05:50:18;;;;;;;0.57;0.20;;;23.20;91.10;;;;;;5084949;28;20084;-76
2021/12/28 05:52:45;;;;;;;1.45;0.20;;;23.20;91.10;;;;;;5089759;28;20106;-76
2021/12/28 05:55:12;;;;;;;7.35;0.70;;;23.10;91.60;;;;;;5085894;28;20470;-77
2021/12/28 05:57:44;;;;;;;2.95;0.50;;;22.90;91.20;;;;;;5092848;28;20176;-76
2021/12/28 06:00:16;;;;;;;1.58;0.22;;;22.90;91.70;;;;;;5089302;28;20093;-77
2021/12/28 06:02:45;;;;;;;2.75;0.30;;;22.90;91.70;;;;;;5086816;28;20378;-77
2021/12/28 06:05:12;;;;;;;1.27;0.93;;;22.90;91.50;;;;;;5085707;27;20031;-76
2021/12/28 06:07:40;;;;;;;4.35;0.30;;;22.80;91.60;;;;;;5088458;28;20027;-77
2021/12/28 06:10:08;;;;;;;1.77;0.30;;;22.80;91.60;;;;;;5089474;28;20031;-76
2021/12/28 06:12:35;;;;;;;6.60;0.70;;;22.80;91.70;;;;;;5091498;28;20049;-78
2021/12/28 06:15:03;;;;;;;2.03;0.35;;;22.80;92.30;;;;;;5091528;27;20114;-79
2021/12/28 06:17:31;;;;;;;2.15;0.28;;;22.70;92.10;;;;;;5088194;28;20037;-80
2021/12/28 06:19:58;;;;;;;4.20;0.38;;;22.60;92.10;;;;;;5090584;28;20031;-76
2021/12/28 06:22:26;;;;;;;2.45;0.60;;;22.50;92.30;;;;;;5092839;27;20731;-76
2021/12/28 06:24:53;;;;;;;4.00;0.38;;;22.40;92.60;;;;;;5089185;27;20177;-77
2021/12/28 06:27:20;;;;;;;2.17;0.20;;;22.40;93.10;;;;;;5088653;28;20028;-76
2021/12/28 06:29:48;;;;;;;0.82;0.30;;;22.40;92.90;;;;;;5090552;28;20103;-78
2021/12/28 06:32:15;;;;;;;3.13;0.63;;;22.30;92.60;;;;;;5088283;27;20027;-76
2021/12/28 06:34:43;;;;;;;2.35;0.30;;;22.20;93.00;;;;;;5089904;28;20953;-80
2021/12/28 06:37:10;;;;;;;3.08;0.40;;;22.10;93.40;;;;;;5093748;27;20097;-79
2021/12/28 06:39:38;;;;;;;3.15;0.40;;;22.10;93.20;;;;;;5089117;28;20383;-79
2021/12/28 06:42:05;;;;;;;6.53;0.57;;;22.00;93.30;;;;;;5092437;27;20100;-78
2021/12/28 06:44:34;;;;;;;1.17;0.50;;;22.00;93.60;;;;;;5088594;27;20035;-77
2021/12/28 06:47:01;;;;;;;1.50;0.60;;;21.90;93.50;;;;;;5074158;28;20031;-77
2021/12/28 06:49:29;;;;;;;8.48;3.88;;;21.70;93.60;;;;;;5092950;28;22491;-78
2021/12/28 06:51:56;;;;;;;1.77;0.85;;;21.50;93.90;;;;;;5094315;28;20028;-78
2021/12/28 06:54:24;;;;;;;2.50;0.57;;;21.30;93.90;;;;;;5094316;27;20059;-77
2021/12/28 06:56:51;;;;;;;7.97;0.85;;;21.20;94.10;;;;;;5097229;28;20180;-78
2021/12/28 06:59:18;;;;;;;5.00;0.35;;;21.10;94.50;;;;;;5092335;28;20782;-77
2021/12/28 07:01:46;;;;;;;4.93;1.58;;;21.00;94.30;;;;;;5091193;27;20119;-77
2021/12/28 07:04:13;;;;;;;1.77;0.80;;;20.90;94.60;;;;;;5091530;27;20034;-76
2021/12/28 07:06:40;;;;;;;3.58;0.80;;;20.90;95.00;;;;;;5094677;28;20069;-76
2021/12/28 07:09:07;;;;;;;3.05;1.13;;;20.80;94.80;;;;;;5091843;27;20027;-76
2021/12/28 07:11:35;;;;;;;2.60;0.50;;;20.70;95.20;;;;;;5094741;28;20662;-78
2021/12/28 07:14:02;;;;;;;5.95;0.82;;;20.60;95.30;;;;;;5089225;28;20027;-76
2021/12/28 07:16:29;;;;;;;7.18;1.08;;;20.70;95.50;;;;;;5092345;27;20028;-78
2021/12/28 07:18:57;;;;;;;2.42;0.30;;;20.70;95.60;;;;;;5092567;28;20031;-76
2021/12/28 07:21:24;;;;;;;6.97;0.93;;;20.70;95.40;;;;;;5088583;28;20464;-76
2021/12/28 07:23:51;;;;;;;4.53;0.60;;;20.80;95.40;;;;;;5092947;27;20031;-74
2021/12/28 07:26:19;;;;;;;5.03;0.40;;;21.00;95.30;;;;;;5093395;28;20028;-79
2021/12/28 07:28:46;;;;;;;3.58;0.40;;;21.20;95.20;;;;;;5094870;27;20955;-81
2021/12/28 07:31:13;;;;;;;2.60;0.40;;;21.30;95.10;;;;;;5093219;28;20027;-78
2021/12/28 07:33:40;;;;;;;1.67;0.30;;;21.40;94.70;;;;;;5092165;28;20119;-78
2021/12/28 07:36:08;;;;;;;0.40;0.28;;;21.40;94.60;;;;;;5107071;28;20030;-78
2021/12/28 07:38:35;;;;;;;2.42;0.25;;;21.40;94.40;;;;;;5092449;28;20024;-78
2021/12/28 07:41:03;;;;;;;1.30;0.20;;;21.40;94.60;;;;;;5107311;28;20042;-79
2021/12/28 07:43:30;;;;;;;1.55;0.30;;;21.40;94.30;;;;;;5100958;28;20027;-79
2021/12/28 07:45:58;;;;;;;1.70;0.68;;;21.40;94.40;;;;;;5102515;28;20027;-79
2021/12/28 07:48:25;;;;;;;6.35;0.45;;;21.40;94.20;;;;;;5111912;28;20077;-81
2021/12/28 07:50:52;;;;;;;7.50;0.93;;;21.40;94.20;;;;;;5110249;28;20016;-75
2021/12/28 07:53:20;;;;;;;4.03;0.93;;;21.40;94.30;;;;;;5112619;28;20580;-79
2021/12/28 07:55:47;;;;;;;1.08;0.40;;;21.30;94.50;;;;;;5104322;28;20031;-80
2021/12/28 07:58:15;;;;;;;2.28;0.85;;;21.30;94.60;;;;;;5112344;28;20394;-80
2021/12/28 08:00:42;;;;;;;4.03;1.48;;;21.40;94.50;;;;;;5109057;27;20024;-80
2021/12/28 08:03:11;;;;;;;2.50;0.45;;;21.30;94.70;;;;;;5111364;28;20036;-80
2021/12/28 08:05:38;;;;;;;3.53;1.25;;;21.20;94.30;;;;;;5101477;28;20530;-80
2021/12/28 08:08:06;;;;;;;1.40;0.40;;;21.10;94.60;;;;;;5110805;28;20076;-74
2021/12/28 08:10:33;;;;;;;2.40;0.40;;;21.00;94.90;;;;;;5104482;28;20478;-82
2021/12/28 08:13:01;;;;;;;5.63;0.60;;;20.90;95.30;;;;;;5102396;27;20051;-76
2021/12/28 08:15:28;;;;;;;0.82;0.30;;;20.70;95.30;;;;;;5094936;28;20120;-76
2021/12/28 08:17:55;;;;;;;1.83;0.40;;;20.70;95.40;;;;;;5093971;28;20078;-76
2021/12/28 08:20:23;;;;;;;2.22;0.40;;;20.60;95.50;;;;;;5098731;27;20066;-81
2021/12/28 08:22:50;;;;;;;5.35;0.90;;;20.50;95.50;;;;;;5098686;28;20039;-80
2021/12/28 08:25:20;;;;;;;1.80;0.45;;;20.50;95.50;;;;;;5088563;28;20023;-80
2021/12/28 08:27:48;;;;;;;4.07;0.50;;;20.40;95.40;;;;;;5090949;28;20035;-75
2021/12/28 08:30:17;;;;;;;4.32;0.60;;;20.40;95.70;;;;;;5088851;28;20028;-75
2021/12/28 08:32:45;;;;;;;4.68;0.55;;;20.20;95.60;;;;;;5088956;28;20023;-78
2021/12/28 08:35:13;;;;;;;2.10;0.30;;;20.10;96.20;;;;;;5091557;28;20039;-79
2021/12/28 08:37:42;;;;;;;0.55;0.20;;;20.10;96.10;;;;;;5091638;28;20024;-76
2021/12/28 08:40:12;;;;;;;3.88;0.45;;;20.00;96.20;;;;;;5092461;28;20043;-80
2021/12/28 08:42:39;;;;;;;3.80;0.50;;;19.90;96.40;;;;;;5092651;28;20066;-80
2021/12/28 08:45:08;;;;;;;1.23;0.40;;;19.80;96.50;;;;;;5089232;28;22278;-80
2021/12/28 08:47:35;;;;;;;3.78;0.80;;;19.80;96.50;;;;;;5089782;28;20114;-77
2021/12/28 08:50:05;;;;;;;5.63;0.55;;;19.60;96.70;;;;;;5088895;27;20547;-80
2021/12/28 08:52:33;;;;;;;2.97;0.50;;;19.60;96.70;;;;;;5095605;28;20115;-81
2021/12/28 08:55:00;;;;;;;2.70;0.63;;;19.50;96.80;;;;;;5093209;28;20660;-79
2021/12/28 08:57:27;;;;;;;4.32;0.60;;;19.50;97.10;;;;;;5090296;28;20034;-79
2021/12/28 08:59:55;;;;;;;2.60;0.30;;;19.40;97.70;;;;;;5090333;28;20099;-79
2021/12/28 09:02:22;;;;;;;3.75;0.35;;;19.40;97.50;;;;;;5088641;28;20132;-77
2021/12/28 09:04:50;;;;;;;2.33;0.20;;;19.30;97.50;;;;;;5099855;28;20115;-76
2021/12/28 09:07:18;;;;;;;2.88;0.55;;;19.20;97.60;;;;;;5104431;28;20028;-82
2021/12/28 09:09:46;;;;;;;2.63;0.30;;;19.10;97.80;;;;;;5105761;28;20019;-80
2021/12/28 09:12:14;;;;;;;3.88;0.93;;;19.10;97.80;;;;;;5099256;28;20024;-79
2021/12/28 09:14:41;;;;;;;0.68;0.30;;;19.00;98.10;;;;;;5099587;28;20024;-78
2021/12/28 09:17:10;;;;;;;2.83;0.65;;;18.90;98.30;;;;;;5107032;28;20019;-78
2021/12/28 09:19:37;;;;;;;2.92;0.22;;;18.90;98.40;;;;;;5097707;28;22344;-76
2021/12/28 09:22:05;;;;;;;0.95;0.17;;;18.90;98.50;;;;;;5091701;28;20584;-76
2021/12/28 09:24:33;;;;;;;1.90;0.82;;;18.80;98.70;;;;;;5088139;28;20028;-79
2021/12/28 09:27:00;;;;;;;6.03;0.60;;;18.80;98.70;;;;;;5093406;28;20093;-78
2021/12/28 09:29:29;;;;;;;2.05;0.30;;;18.70;98.40;;;;;;5087704;27;20023;-78
2021/12/28 09:31:58;;;;;;;4.13;0.30;;;18.70;98.60;;;;;;5086975;27;20067;-78
2021/12/28 09:34:26;;;;;;;2.42;0.40;;;18.70;98.30;;;;;;5086595;27;20084;-78
2021/12/28 09:36:55;;;;;;;1.00;0.20;;;18.60;98.40;;;;;;5089225;27;20244;-79
2021/12/28 09:39:26;;;;;;;2.63;0.32;;;18.50;98.40;;;;;;5086709;28;21499;-78
2021/12/28 09:41:56;;;;;;;2.95;0.30;;;18.50;98.80;;;;;;5089966;27;20039;-79
2021/12/28 09:44:24;;;;;;;2.40;0.40;;;18.50;98.70;;;;;;5089851;27;22276;-77
2021/12/28 09:46:51;;;;;;;1.50;0.30;;;18.50;98.60;;;;;;5094790;28;20281;-79
2021/12/28 09:49:19;;;;;;;1.17;0.20;;;18.50;98.70;;;;;;5098534;28;20029;-79
2021/12/28 09:51:49;;;;;;;4.00;0.80;;;18.50;98.60;;;;;;5109437;28;20027;-80
2021/12/28 09:54:16;;;;;;;3.88;0.20;;;18.40;98.60;;;;;;5105386;27;20079;-80
2021/12/28 09:56:45;;;;;;;4.50;0.40;;;18.40;98.60;;;;;;5106646;28;20043;-81
2021/12/28 09:59:12;;;;;;;1.45;0.20;;;18.30;98.70;;;;;;5111031;28;20043;-81
2021/12/28 10:01:39;;;;;;;3.42;0.30;;;18.30;98.90;;;;;;5099446;28;20118;-77
2021/12/28 10:04:07;;;;;;;1.45;0.30;;;18.30;98.90;;;;;;5098199;28;20693;-81
2021/12/28 10:06:34;;;;;;;0.68;0.30;;;18.30;99.10;;;;;;5100586;27;20035;-80
2021/12/28 10:09:07;;;;;;;4.00;0.40;;;18.20;99.10;;;;;;5096110;28;20085;-77
2021/12/28 10:11:38;;;;;;;1.88;0.63;;;18.20;99.10;;;;;;5098225;27;20028;-78
2021/12/28 10:14:20;;;;;;;7.82;1.23;;;18.10;99.30;;;;;;5108558;28;20093;-77
2021/12/28 10:16:49;;;;;;;2.67;0.32;;;18.10;99.50;;;;;;5103551;27;20452;-78
2021/12/28 10:19:49;;;;;;;0.63;0.28;;;18.10;99.70;;;;;;5105597;28;20019;-79
2021/12/28 10:22:33;;;;;;;3.05;0.47;;;18.10;99.90;;;;;;5070393;28;20047;-78
2021/12/28 10:25:23;;;;;;;2.30;0.50;;;18.10;99.70;;;;;;5111522;28;20051;-81
2021/12/28 10:28:00;;;;;;;1.00;0.20;;;18.10;99.60;;;;;;5105190;28;20038;-81
2021/12/28 10:30:58;;;;;;;2.20;0.63;;;18.10;99.70;;;;;;5090708;28;20619;-77
2021/12/28 10:33:28;;;;;;;1.65;0.40;;;18.10;99.80;;;;;;5102680;27;20032;-75
2021/12/28 10:36:00;;;;;;;5.25;0.47;;;18.00;99.90;;;;;;5096008;28;20027;-75
2021/12/28 10:38:34;;;;;;;1.63;0.30;;;18.00;99.90;;;;;;5099921;28;20028;-77
2021/12/28 10:41:16;;;;;;;2.63;0.40;;;18.00;99.90;;;;;;5094696;28;20047;-75
2021/12/28 10:43:46;;;;;;;2.25;0.50;;;18.00;99.90;;;;;;5088435;28;20162;-75
2021/12/28 10:46:15;;;;;;;2.83;0.80;;;17.90;99.90;;;;;;5087246;28;20700;-78
2021/12/28 10:48:50;;;;;;;2.63;0.47;;;18.00;99.90;;;;;;5088734;28;20027;-76
2021/12/28 10:51:43;;;;;;;3.08;1.27;;;17.90;99.90;;;;;;5095813;27;20024;-77
2021/12/28 10:54:14;;;;;;;1.83;0.30;;;18.00;99.90;;;;;;5088382;27;20122;-73
2021/12/28 10:56:48;;;;;;;2.63;0.77;;;17.90;99.90;;;;;;5087371;28;20027;-78
2021/12/28 10:59:25;;;;;;;3.92;0.57;;;17.90;99.90;;;;;;5085086;28;20036;-78
2021/12/28 11:01:53;;;;;;;3.17;0.55;;;17.90;99.90;;;;;;5091019;28;20070;-77
2021/12/28 11:04:21;;;;;;;1.98;0.50;;;17.80;99.90;;;;;;5087480;28;22216;-75
2021/12/28 11:06:53;;;;;;;4.68;0.38;;;17.70;99.90;;;;;;5087703;28;20031;-78
2021/12/28 11:09:25;;;;;;;2.45;0.38;;;17.70;99.90;;;;;;5085533;27;20028;-77
2021/12/28 11:11:55;;;;;;;1.55;0.77;;;17.60;99.90;;;;;;5090579;27;20035;-75
2021/12/28 11:14:26;;;;;;;3.30;1.13;;;17.50;99.90;;;;;;5090515;27;20039;-76
2021/12/28 11:16:56;;;;;;;1.23;0.43;;;17.60;99.90;;;;;;5092575;28;20051;-76
2021/12/28 11:19:33;;;;;;;3.60;0.50;;;17.50;99.90;;;;;;5091688;28;20080;-75
2021/12/28 11:22:11;;;;;;;2.35;0.40;;;17.40;99.90;;;;;;5096165;27;20070;-78
2021/12/28 11:24:47;;;;;;;3.63;0.77;;;17.40;99.90;;;;;;5095116;28;20052;-76
2021/12/28 11:27:27;;;;;;;3.60;0.47;;;17.30;99.90;;;;;;5092789;27;20036;-76
2021/12/28 11:29:57;;;;;;;2.95;0.73;;;17.30;99.90;;;;;;5088687;27;21957;-81
2021/12/28 11:32:25;;;;;;;1.98;0.55;;;17.30;99.90;;;;;;5088884;28;20047;-77
2021/12/28 11:34:53;;;;;;;5.68;0.82;;;17.20;99.90;;;;;;5086377;27;20070;-77
2021/12/28 11:37:24;;;;;;;3.28;0.65;;;17.20;99.90;;;;;;5092525;28;20079;-82
2021/12/28 11:39:59;;;;;;;1.98;0.45;;;17.10;99.90;;;;;;5085462;28;20054;-74
2021/12/28 11:42:28;;;;;;;0.52;0.20;;;17.10;99.90;;;;;;5085881;27;20399;-74
2021/12/28 11:44:56;;;;;;;0.73;0.40;;;17.10;99.90;;;;;;5085354;28;20039;-76
2021/12/28 11:47:24;;;;;;;2.60;0.40;;;17.10;99.90;;;;;;5085778;28;20105;-75
2021/12/28 11:49:56;;;;;;;2.28;0.25;;;17.10;99.90;;;;;;5085053;28;20553;-77
2021/12/28 11:52:23;;;;;;;1.05;0.25;;;17.10;99.90;;;;;;5086874;28;20516;-75
2021/12/28 11:54:53;;;;;;;1.88;0.35;;;17.00;99.90;;;;;;5092014;27;20470;-79
2021/12/28 11:57:26;;;;;;;1.38;0.40;;;17.10;99.90;;;;;;5088200;27;20724;-78
2021/12/28 11:59:55;;;;;;;5.13;0.20;;;17.00;99.90;;;;;;5089706;28;20020;-79
2021/12/28 12:02:39;;;;;;;0.95;0.85;;;17.00;99.90;;;;;;5088203;28;20560;-75
2021/12/28 12:05:33;;;;;;;1.88;1.10;;;17.00;99.90;;;;;;5089109;27;20127;-78
2021/12/28 12:08:11;;;;;;;3.33;0.20;;;17.00;99.90;;;;;;5090821;28;20055;-75
2021/12/28 12:10:45;;;;;;;4.00;0.20;;;17.00;99.90;;;;;;5091092;28;20100;-77
2021/12/28 12:13:27;;;;;;;0.60;0.38;;;17.00;99.90;;;;;;5090520;28;20063;-75
2021/12/28 12:15:59;;;;;;;4.20;1.02;;;16.90;99.90;;;;;;5090685;28;20478;-75
2021/12/28 12:18:43;;;;;;;1.35;0.30;;;16.90;99.90;;;;;;5090844;28;20094;-76
2021/12/28 12:21:17;;;;;;;2.15;0.60;;;16.90;99.90;;;;;;5097236;28;20016;-75
2021/12/28 12:23:48;;;;;;;6.32;1.20;;;16.90;99.90;;;;;;5091970;28;20410;-77
2021/12/28 12:26:24;;;;;;;1.90;0.50;;;16.80;99.90;;;;;;5090778;28;20038;-77
2021/12/28 12:28:54;;;;;;;1.73;0.47;;;16.70;99.90;;;;;;5089720;28;20024;-73
2021/12/28 12:31:49;;;;;;;1.95;0.38;;;16.70;99.90;;;;;;5090640;28;20643;-75
2021/12/28 12:34:34;;;;;;;5.65;0.73;;;16.60;99.90;;;;;;5089312;28;20048;-73
2021/12/28 12:37:01;;;;;;;2.28;0.20;;;16.50;99.90;;;;;;5091723;27;20390;-77
2021/12/28 12:39:38;;;;;;;2.85;0.43;;;16.50;99.90;;;;;;5089741;28;20039;-76
2021/12/28 12:42:12;;;;;;;0.28;0.10;;;16.50;99.90;;;;;;5090056;28;20118;-77
2021/12/28 12:44:40;;;;;;;2.58;0.20;;;16.40;99.90;;;;;;5090417;28;20028;-78
2021/12/28 12:47:09;;;;;;;2.00;0.28;;;16.40;99.90;;;;;;5092225;28;20035;-73
2021/12/28 12:49:37;;;;;;;2.47;0.60;;;16.30;99.90;;;;;;5092700;28;20031;-73
2021/12/28 12:52:17;;;;;;;1.23;0.32;;;16.30;99.90;;;;;;5093526;28;20114;-74
2021/12/28 12:54:47;;;;;;;1.48;0.30;;;16.20;99.90;;;;;;5089892;28;20028;-77
2021/12/28 12:57:29;;;;;;;1.15;0.20;;;16.20;99.90;;;;;;5088169;28;20045;-77
2021/12/28 13:00:01;;;;;;;1.83;0.22;;;16.10;99.90;;;;;;5087026;28;20043;-76
2021/12/28 13:02:31;;;;;;;2.42;0.22;;;16.10;99.90;;;;;;5086761;28;20035;-74